sensor_id;sensor_type;location;lat;lon;timestamp;P1;durP1;ratioP1;P2;durP2;ratioP2
19059;SDS011;9663;48.996;8.334;2022-09-27T00:00:40;1.33;;;0.50;;
19059;SDS011;9663;48.996;8.334;2022-09-27T00:03:07;1.52;;;0.50;;
19059;SDS011;9663;48.996;8.334;2022-09-27T00:05:34;2.47;;;0.50;;
19059;SDS011;9663;48.996;8.334;2022-09-27T00:08:00;0.80;;;0.50;;
19059;SDS011;9663;48.996;8.334;2022-09-27T00:10:26;0.70;;;0.45;;
19059;SDS011;9663;48.996;8.334;2022-09-27T00:12:52;1.27;;;0.60;;
19059;SDS011;9663;48.996;8.334;2022-09-27T00:15:19;1.33;;;0.50;;
19059;SDS011;9663;48.996;8.334;2022-09-27T00:17:45;1.55;;;0.50;;
19059;SDS011;9663;48.996;8.334;2022-09-27T00:20:15;1.05;;;0.50;;
19059;SDS011;9663;48.996;8.334;2022-09-27T00:22:44;0.93;;;0.43;;
19059;SDS011;9663;48.996;8.334;2022-09-27T00:25:12;1.42;;;0.50;;
19059;SDS011;9663;48.996;8.334;2022-09-27T00:27:38;1.63;;;0.50;;
19059;SDS011;9663;48.996;8.334;2022-09-27T00:30:03;2.22;;;0.60;;
19059;SDS011;9663;48.996;8.334;2022-09-27T00:32:30;1.83;;;0.60;;
19059;SDS011;9663;48.996;8.334;2022-09-27T00:34:55;1.98;;;0.60;;
19059;SDS011;9663;48.996;8.334;2022-09-27T00:37:21;1.23;;;0.50;;
19059;SDS011;9663;48.996;8.334;2022-09-27T00:39:47;1.50;;;0.52;;
19059;SDS011;9663;48.996;8.334;2022-09-27T00:42:13;1.75;;;0.70;;
19059;SDS011;9663;48.996;8.334;2022-09-27T00:47:25;0.98;;;0.43;;
19059;SDS011;9663;48.996;8.334;2022-09-27T00:52:44;0.98;;;0.40;;
19059;SDS011;9663;48.996;8.334;2022-09-27T00:55:34;0.70;;;0.40;;
19059;SDS011;9663;48.996;8.334;2022-09-27T00:58:16;1.00;;;0.40;;
19059;SDS011;9663;48.996;8.334;2022-09-27T01:00:48;1.42;;;0.50;;
19059;SDS011;9663;48.996;8.334;2022-09-27T01:03:21;1.98;;;0.50;;
19059;SDS011;9663;48.996;8.334;2022-09-27T01:06:13;1.30;;;0.60;;
19059;SDS011;9663;48.996;8.334;2022-09-27T01:08:42;1.02;;;0.40;;
19059;SDS011;9663;48.996;8.334;2022-09-27T01:11:13;0.93;;;0.47;;
19059;SDS011;9663;48.996;8.334;2022-09-27T01:13:56;2.42;;;0.68;;
19059;SDS011;9663;48.996;8.334;2022-09-27T01:16:37;1.55;;;0.60;;
19059;SDS011;9663;48.996;8.334;2022-09-27T01:22:29;1.65;;;0.60;;
19059;SDS011;9663;48.996;8.334;2022-09-27T01:33:30;1.23;;;0.50;;
19059;SDS011;9663;48.996;8.334;2022-09-27T01:36:22;1.08;;;0.40;;
19059;SDS011;9663;48.996;8.334;2022-09-27T01:42:07;0.95;;;0.50;;
19059;SDS011;9663;48.996;8.334;2022-09-27T01:44:57;1.20;;;0.50;;
19059;SDS011;9663;48.996;8.334;2022-09-27T01:47:46;1.23;;;0.60;;
19059;SDS011;9663;48.996;8.334;2022-09-27T01:50:39;1.92;;;0.50;;
19059;SDS011;9663;48.996;8.334;2022-09-27T01:53:45;1.33;;;0.50;;
19059;SDS011;9663;48.996;8.334;2022-09-27T01:56:12;2.17;;;0.50;;
19059;SDS011;9663;48.996;8.334;2022-09-27T01:58:52;2.25;;;0.52;;
19059;SDS011;9663;48.996;8.334;2022-09-27T02:01:29;0.65;;;0.40;;
19059;SDS011;9663;48.996;8.334;2022-09-27T02:04:00;2.70;;;0.50;;
19059;SDS011;9663;48.996;8.334;2022-09-27T02:06:30;1.15;;;0.50;;
19059;SDS011;9663;48.996;8.334;2022-09-27T02:09:06;1.02;;;0.52;;
19059;SDS011;9663;48.996;8.334;2022-09-27T02:11:45;1.35;;;0.50;;
19059;SDS011;9663;48.996;8.334;2022-09-27T02:14:40;1.30;;;0.50;;
19059;SDS011;9663;48.996;8.334;2022-09-27T02:23:02;1.48;;;0.50;;
19059;SDS011;9663;48.996;8.334;2022-09-27T02:31:08;2.55;;;0.52;;
19059;SDS011;9663;48.996;8.334;2022-09-27T02:33:44;1.80;;;0.85;;
19059;SDS011;9663;48.996;8.334;2022-09-27T02:36:16;2.40;;;0.60;;
19059;SDS011;9663;48.996;8.334;2022-09-27T02:38:43;1.38;;;0.60;;
19059;SDS011;9663;48.996;8.334;2022-09-27T02:41:13;1.80;;;0.70;;
19059;SDS011;9663;48.996;8.334;2022-09-27T02:43:41;2.05;;;0.65;;
19059;SDS011;9663;48.996;8.334;2022-09-27T02:55:13;2.53;;;0.70;;
19059;SDS011;9663;48.996;8.334;2022-09-27T03:01:06;2.15;;;0.60;;
19059;SDS011;9663;48.996;8.334;2022-09-27T03:04:22;2.63;;;0.65;;
19059;SDS011;9663;48.996;8.334;2022-09-27T03:07:02;1.80;;;0.60;;
19059;SDS011;9663;48.996;8.334;2022-09-27T03:09:29;2.67;;;0.70;;
19059;SDS011;9663;48.996;8.334;2022-09-27T03:12:07;2.80;;;0.73;;
19059;SDS011;9663;48.996;8.334;2022-09-27T03:14:33;2.03;;;0.70;;
19059;SDS011;9663;48.996;8.334;2022-09-27T03:16:59;2.97;;;0.68;;
19059;SDS011;9663;48.996;8.334;2022-09-27T03:19:24;2.60;;;0.70;;
19059;SDS011;9663;48.996;8.334;2022-09-27T03:21:50;5.60;;;1.10;;
19059;SDS011;9663;48.996;8.334;2022-09-27T03:24:15;4.22;;;1.00;;
19059;SDS011;9663;48.996;8.334;2022-09-27T03:26:41;2.70;;;0.73;;
19059;SDS011;9663;48.996;8.334;2022-09-27T03:29:07;1.98;;;0.60;;
19059;SDS011;9663;48.996;8.334;2022-09-27T03:31:32;2.67;;;0.60;;
19059;SDS011;9663;48.996;8.334;2022-09-27T03:33:58;3.83;;;0.80;;
19059;SDS011;9663;48.996;8.334;2022-09-27T03:36:24;3.67;;;1.00;;
19059;SDS011;9663;48.996;8.334;2022-09-27T03:38:49;3.38;;;0.80;;
19059;SDS011;9663;48.996;8.334;2022-09-27T03:41:15;2.65;;;0.65;;
19059;SDS011;9663;48.996;8.334;2022-09-27T03:43:41;2.38;;;0.80;;
19059;SDS011;9663;48.996;8.334;2022-09-27T03:46:07;3.05;;;0.85;;
19059;SDS011;9663;48.996;8.334;2022-09-27T03:48:32;4.07;;;1.08;;
19059;SDS011;9663;48.996;8.334;2022-09-27T03:50:58;2.42;;;0.90;;
19059;SDS011;9663;48.996;8.334;2022-09-27T03:53:24;2.33;;;0.80;;
19059;SDS011;9663;48.996;8.334;2022-09-27T03:55:50;2.88;;;0.70;;
19059;SDS011;9663;48.996;8.334;2022-09-27T03:58:15;6.00;;;0.95;;
19059;SDS011;9663;48.996;8.334;2022-09-27T04:00:41;3.13;;;0.80;;
19059;SDS011;9663;48.996;8.334;2022-09-27T04:03:08;2.03;;;0.70;;
19059;SDS011;9663;48.996;8.334;2022-09-27T04:05:34;3.22;;;0.90;;
19059;SDS011;9663;48.996;8.334;2022-09-27T04:08:01;2.28;;;0.60;;
19059;SDS011;9663;48.996;8.334;2022-09-27T04:10:26;2.83;;;0.82;;
19059;SDS011;9663;48.996;8.334;2022-09-27T04:12:52;3.25;;;0.77;;
19059;SDS011;9663;48.996;8.334;2022-09-27T04:15:18;3.53;;;1.00;;
19059;SDS011;9663;48.996;8.334;2022-09-27T04:17:47;7.85;;;0.80;;
19059;SDS011;9663;48.996;8.334;2022-09-27T04:20:13;3.88;;;0.70;;
19059;SDS011;9663;48.996;8.334;2022-09-27T04:22:40;2.78;;;1.00;;
19059;SDS011;9663;48.996;8.334;2022-09-27T04:25:08;3.20;;;0.80;;
19059;SDS011;9663;48.996;8.334;2022-09-27T04:27:34;3.42;;;1.00;;
19059;SDS011;9663;48.996;8.334;2022-09-27T04:30:00;3.40;;;0.95;;
19059;SDS011;9663;48.996;8.334;2022-09-27T04:32:26;2.55;;;0.90;;
19059;SDS011;9663;48.996;8.334;2022-09-27T04:34:52;4.00;;;0.90;;
19059;SDS011;9663;48.996;8.334;2022-09-27T04:37:36;3.15;;;0.75;;
19059;SDS011;9663;48.996;8.334;2022-09-27T04:40:02;6.43;;;0.82;;
19059;SDS011;9663;48.996;8.334;2022-09-27T04:42:29;2.92;;;0.93;;
19059;SDS011;9663;48.996;8.334;2022-09-27T04:44:55;2.40;;;0.80;;
19059;SDS011;9663;48.996;8.334;2022-09-27T04:47:21;1.85;;;0.95;;
19059;SDS011;9663;48.996;8.334;2022-09-27T04:49:46;2.75;;;0.70;;
19059;SDS011;9663;48.996;8.334;2022-09-27T04:52:13;5.72;;;0.90;;
19059;SDS011;9663;48.996;8.334;2022-09-27T04:54:39;2.83;;;0.80;;
19059;SDS011;9663;48.996;8.334;2022-09-27T04:57:05;2.92;;;0.75;;
19059;SDS011;9663;48.996;8.334;2022-09-27T04:59:31;1.98;;;0.60;;
19059;SDS011;9663;48.996;8.334;2022-09-27T05:01:57;1.98;;;0.68;;
19059;SDS011;9663;48.996;8.334;2022-09-27T05:04:26;2.90;;;0.60;;
19059;SDS011;9663;48.996;8.334;2022-09-27T05:06:52;2.53;;;0.80;;
19059;SDS011;9663;48.996;8.334;2022-09-27T05:09:18;2.08;;;0.80;;
19059;SDS011;9663;48.996;8.334;2022-09-27T05:11:43;4.97;;;0.80;;
19059;SDS011;9663;48.996;8.334;2022-09-27T05:14:12;2.13;;;0.60;;
19059;SDS011;9663;48.996;8.334;2022-09-27T05:16:38;2.78;;;0.90;;
19059;SDS011;9663;48.996;8.334;2022-09-27T05:19:03;2.55;;;0.70;;
19059;SDS011;9663;48.996;8.334;2022-09-27T05:21:29;1.90;;;0.60;;
19059;SDS011;9663;48.996;8.334;2022-09-27T05:23:55;2.45;;;0.70;;
19059;SDS011;9663;48.996;8.334;2022-09-27T05:26:22;2.45;;;0.70;;
19059;SDS011;9663;48.996;8.334;2022-09-27T05:28:47;1.77;;;0.60;;
19059;SDS011;9663;48.996;8.334;2022-09-27T05:31:13;3.70;;;0.60;;
19059;SDS011;9663;48.996;8.334;2022-09-27T05:33:40;2.28;;;0.70;;
19059;SDS011;9663;48.996;8.334;2022-09-27T05:36:07;2.83;;;0.90;;
19059;SDS011;9663;48.996;8.334;2022-09-27T05:38:33;2.08;;;0.60;;
19059;SDS011;9663;48.996;8.334;2022-09-27T05:41:00;1.10;;;0.50;;
19059;SDS011;9663;48.996;8.334;2022-09-27T05:43:28;4.15;;;0.70;;
19059;SDS011;9663;48.996;8.334;2022-09-27T05:45:53;1.42;;;0.65;;
19059;SDS011;9663;48.996;8.334;2022-09-27T05:48:19;2.17;;;0.80;;
19059;SDS011;9663;48.996;8.334;2022-09-27T05:50:46;1.98;;;0.60;;
19059;SDS011;9663;48.996;8.334;2022-09-27T05:53:11;2.22;;;0.70;;
19059;SDS011;9663;48.996;8.334;2022-09-27T05:55:37;1.80;;;0.60;;
19059;SDS011;9663;48.996;8.334;2022-09-27T05:58:04;3.08;;;0.60;;
19059;SDS011;9663;48.996;8.334;2022-09-27T06:00:32;1.45;;;0.52;;
19059;SDS011;9663;48.996;8.334;2022-09-27T06:03:02;1.98;;;0.57;;
19059;SDS011;9663;48.996;8.334;2022-09-27T06:05:33;1.73;;;0.50;;
19059;SDS011;9663;48.996;8.334;2022-09-27T06:08:06;2.08;;;0.60;;
19059;SDS011;9663;48.996;8.334;2022-09-27T06:10:37;1.10;;;0.50;;
19059;SDS011;9663;48.996;8.334;2022-09-27T06:13:06;1.35;;;0.50;;
19059;SDS011;9663;48.996;8.334;2022-09-27T06:15:40;1.77;;;0.50;;
19059;SDS011;9663;48.996;8.334;2022-09-27T06:18:12;1.05;;;0.52;;
19059;SDS011;9663;48.996;8.334;2022-09-27T06:20:42;1.45;;;0.40;;
19059;SDS011;9663;48.996;8.334;2022-09-27T06:23:09;0.73;;;0.30;;
19059;SDS011;9663;48.996;8.334;2022-09-27T06:25:36;1.38;;;0.63;;
19059;SDS011;9663;48.996;8.334;2022-09-27T06:28:04;2.38;;;0.73;;
19059;SDS011;9663;48.996;8.334;2022-09-27T06:30:30;2.15;;;0.55;;
19059;SDS011;9663;48.996;8.334;2022-09-27T06:33:00;0.90;;;0.40;;
19059;SDS011;9663;48.996;8.334;2022-09-27T06:35:27;1.15;;;0.45;;
19059;SDS011;9663;48.996;8.334;2022-09-27T06:37:53;0.93;;;0.43;;
19059;SDS011;9663;48.996;8.334;2022-09-27T06:40:20;0.95;;;0.40;;
19059;SDS011;9663;48.996;8.334;2022-09-27T06:42:46;2.08;;;0.82;;
19059;SDS011;9663;48.996;8.334;2022-09-27T06:45:14;0.90;;;0.47;;
19059;SDS011;9663;48.996;8.334;2022-09-27T06:47:40;1.73;;;0.50;;
19059;SDS011;9663;48.996;8.334;2022-09-27T06:50:06;0.90;;;0.40;;
19059;SDS011;9663;48.996;8.334;2022-09-27T06:52:32;1.00;;;0.43;;
19059;SDS011;9663;48.996;8.334;2022-09-27T06:55:03;0.57;;;0.40;;
19059;SDS011;9663;48.996;8.334;2022-09-27T06:57:29;1.95;;;0.60;;
19059;SDS011;9663;48.996;8.334;2022-09-27T07:00:14;3.55;;;0.55;;
19059;SDS011;9663;48.996;8.334;2022-09-27T07:02:50;1.00;;;0.40;;
19059;SDS011;9663;48.996;8.334;2022-09-27T07:05:18;1.17;;;0.50;;
19059;SDS011;9663;48.996;8.334;2022-09-27T07:07:45;0.70;;;0.40;;
19059;SDS011;9663;48.996;8.334;2022-09-27T07:10:14;0.80;;;0.40;;
19059;SDS011;9663;48.996;8.334;2022-09-27T07:12:42;0.90;;;0.40;;
19059;SDS011;9663;48.996;8.334;2022-09-27T07:15:11;1.33;;;0.40;;
19059;SDS011;9663;48.996;8.334;2022-09-27T07:17:37;1.05;;;0.40;;
19059;SDS011;9663;48.996;8.334;2022-09-27T07:20:03;1.08;;;0.40;;
19059;SDS011;9663;48.996;8.334;2022-09-27T07:22:29;1.05;;;0.43;;
19059;SDS011;9663;48.996;8.334;2022-09-27T07:24:55;1.90;;;0.60;;
19059;SDS011;9663;48.996;8.334;2022-09-27T07:27:21;0.80;;;0.50;;
19059;SDS011;9663;48.996;8.334;2022-09-27T07:29:49;1.27;;;0.50;;
19059;SDS011;9663;48.996;8.334;2022-09-27T07:32:14;0.80;;;0.40;;
19059;SDS011;9663;48.996;8.334;2022-09-27T07:34:40;1.25;;;0.60;;
19059;SDS011;9663;48.996;8.334;2022-09-27T07:37:06;0.70;;;0.40;;
19059;SDS011;9663;48.996;8.334;2022-09-27T07:39:32;1.20;;;0.50;;
19059;SDS011;9663;48.996;8.334;2022-09-27T07:41:58;0.90;;;0.50;;
19059;SDS011;9663;48.996;8.334;2022-09-27T07:44:24;1.23;;;0.40;;
19059;SDS011;9663;48.996;8.334;2022-09-27T07:46:49;0.65;;;0.40;;
19059;SDS011;9663;48.996;8.334;2022-09-27T07:49:15;0.70;;;0.40;;
19059;SDS011;9663;48.996;8.334;2022-09-27T07:51:41;0.90;;;0.40;;
19059;SDS011;9663;48.996;8.334;2022-09-27T07:54:06;1.20;;;0.47;;
19059;SDS011;9663;48.996;8.334;2022-09-27T07:56:32;1.50;;;0.50;;
19059;SDS011;9663;48.996;8.334;2022-09-27T07:58:58;0.70;;;0.40;;
19059;SDS011;9663;48.996;8.334;2022-09-27T08:01:23;1.52;;;0.60;;
19059;SDS011;9663;48.996;8.334;2022-09-27T08:03:49;0.93;;;0.50;;
19059;SDS011;9663;48.996;8.334;2022-09-27T08:06:15;2.22;;;0.50;;
19059;SDS011;9663;48.996;8.334;2022-09-27T08:08:41;1.83;;;0.60;;
19059;SDS011;9663;48.996;8.334;2022-09-27T08:11:11;0.75;;;0.50;;
19059;SDS011;9663;48.996;8.334;2022-09-27T08:13:42;1.70;;;0.50;;
19059;SDS011;9663;48.996;8.334;2022-09-27T08:16:09;1.92;;;0.70;;
19059;SDS011;9663;48.996;8.334;2022-09-27T08:18:36;1.77;;;0.50;;
19059;SDS011;9663;48.996;8.334;2022-09-27T08:21:02;2.60;;;0.52;;
19059;SDS011;9663;48.996;8.334;2022-09-27T08:23:28;1.65;;;0.60;;
19059;SDS011;9663;48.996;8.334;2022-09-27T08:25:55;1.27;;;0.60;;
19059;SDS011;9663;48.996;8.334;2022-09-27T08:28:23;1.17;;;0.47;;
19059;SDS011;9663;48.996;8.334;2022-09-27T08:30:51;1.42;;;0.60;;
19059;SDS011;9663;48.996;8.334;2022-09-27T08:33:17;2.15;;;0.60;;
19059;SDS011;9663;48.996;8.334;2022-09-27T08:35:43;3.85;;;0.80;;
19059;SDS011;9663;48.996;8.334;2022-09-27T08:38:09;2.63;;;0.68;;
19059;SDS011;9663;48.996;8.334;2022-09-27T08:49:20;2.08;;;0.60;;
19059;SDS011;9663;48.996;8.334;2022-09-27T08:51:50;1.67;;;0.70;;
19059;SDS011;9663;48.996;8.334;2022-09-27T08:54:21;3.35;;;0.75;;
19059;SDS011;9663;48.996;8.334;2022-09-27T08:56:54;2.65;;;0.90;;
19059;SDS011;9663;48.996;8.334;2022-09-27T08:59:38;2.40;;;0.80;;
19059;SDS011;9663;48.996;8.334;2022-09-27T09:02:12;3.50;;;0.88;;
19059;SDS011;9663;48.996;8.334;2022-09-27T09:04:49;2.78;;;0.80;;
19059;SDS011;9663;48.996;8.334;2022-09-27T09:13:22;2.42;;;0.80;;
19059;SDS011;9663;48.996;8.334;2022-09-27T09:22:24;2.13;;;0.77;;
19059;SDS011;9663;48.996;8.334;2022-09-27T09:28:34;2.83;;;0.80;;
19059;SDS011;9663;48.996;8.334;2022-09-27T09:34:19;4.28;;;0.98;;
19059;SDS011;9663;48.996;8.334;2022-09-27T09:36:59;2.85;;;0.80;;
19059;SDS011;9663;48.996;8.334;2022-09-27T09:50:44;1.60;;;0.70;;
19059;SDS011;9663;48.996;8.334;2022-09-27T09:56:22;1.88;;;0.70;;
19059;SDS011;9663;48.996;8.334;2022-09-27T09:58:56;2.22;;;0.75;;
19059;SDS011;9663;48.996;8.334;2022-09-27T10:01:29;1.52;;;0.60;;
19059;SDS011;9663;48.996;8.334;2022-09-27T10:04:04;1.65;;;0.55;;
19059;SDS011;9663;48.996;8.334;2022-09-27T10:06:30;1.58;;;0.70;;
19059;SDS011;9663;48.996;8.334;2022-09-27T10:08:57;2.10;;;0.65;;
19059;SDS011;9663;48.996;8.334;2022-09-27T10:11:24;2.55;;;0.80;;
19059;SDS011;9663;48.996;8.334;2022-09-27T10:14:00;2.75;;;0.70;;
19059;SDS011;9663;48.996;8.334;2022-09-27T10:16:26;2.35;;;0.60;;
19059;SDS011;9663;48.996;8.334;2022-09-27T10:18:54;1.05;;;0.50;;
19059;SDS011;9663;48.996;8.334;2022-09-27T10:21:27;2.20;;;0.75;;
19059;SDS011;9663;48.996;8.334;2022-09-27T10:24:07;2.83;;;0.70;;
19059;SDS011;9663;48.996;8.334;2022-09-27T10:26:35;2.85;;;0.75;;
19059;SDS011;9663;48.996;8.334;2022-09-27T10:31:48;2.72;;;1.00;;
19059;SDS011;9663;48.996;8.334;2022-09-27T10:34:57;3.67;;;1.10;;
19059;SDS011;9663;48.996;8.334;2022-09-27T10:39:41;2.00;;;0.70;;
19059;SDS011;9663;48.996;8.334;2022-09-27T10:42:22;2.83;;;0.60;;
19059;SDS011;9663;48.996;8.334;2022-09-27T10:47:54;0.95;;;0.40;;
19059;SDS011;9663;48.996;8.334;2022-09-27T10:50:25;0.65;;;0.38;;
19059;SDS011;9663;48.996;8.334;2022-09-27T10:53:27;0.70;;;0.40;;
19059;SDS011;9663;48.996;8.334;2022-09-27T10:55:46;0.70;;;0.40;;
19059;SDS011;9663;48.996;8.334;2022-09-27T10:58:19;0.73;;;0.40;;
19059;SDS011;9663;48.996;8.334;2022-09-27T11:00:59;1.02;;;0.40;;
19059;SDS011;9663;48.996;8.334;2022-09-27T11:03:29;1.40;;;0.47;;
19059;SDS011;9663;48.996;8.334;2022-09-27T11:05:57;0.93;;;0.40;;
19059;SDS011;9663;48.996;8.334;2022-09-27T11:13:40;1.45;;;0.30;;
19059;SDS011;9663;48.996;8.334;2022-09-27T11:28:01;0.50;;;0.35;;
19059;SDS011;9663;48.996;8.334;2022-09-27T11:39:24;1.10;;;0.40;;
19059;SDS011;9663;48.996;8.334;2022-09-27T11:42:32;1.40;;;0.40;;
19059;SDS011;9663;48.996;8.334;2022-09-27T11:51:40;0.88;;;0.40;;
19059;SDS011;9663;48.996;8.334;2022-09-27T12:00:38;0.85;;;0.32;;
19059;SDS011;9663;48.996;8.334;2022-09-27T12:09:15;1.35;;;0.50;;
19059;SDS011;9663;48.996;8.334;2022-09-27T12:11:51;1.17;;;0.40;;
19059;SDS011;9663;48.996;8.334;2022-09-27T12:17:10;0.73;;;0.40;;
19059;SDS011;9663;48.996;8.334;2022-09-27T12:19:44;2.00;;;0.50;;
19059;SDS011;9663;48.996;8.334;2022-09-27T12:22:17;1.65;;;0.60;;
19059;SDS011;9663;48.996;8.334;2022-09-27T12:24:50;1.60;;;0.50;;
19059;SDS011;9663;48.996;8.334;2022-09-27T12:27:25;0.77;;;0.40;;
19059;SDS011;9663;48.996;8.334;2022-09-27T12:30:01;1.80;;;0.63;;
19059;SDS011;9663;48.996;8.334;2022-09-27T12:32:34;1.02;;;0.50;;
19059;SDS011;9663;48.996;8.334;2022-09-27T12:38:21;1.15;;;0.45;;
19059;SDS011;9663;48.996;8.334;2022-09-27T12:41:06;0.85;;;0.50;;
19059;SDS011;9663;48.996;8.334;2022-09-27T12:43:37;1.30;;;0.47;;
19059;SDS011;9663;48.996;8.334;2022-09-27T12:46:22;0.57;;;0.30;;
19059;SDS011;9663;48.996;8.334;2022-09-27T12:49:17;0.70;;;0.45;;
19059;SDS011;9663;48.996;8.334;2022-09-27T12:52:10;2.30;;;0.50;;
19059;SDS011;9663;48.996;8.334;2022-09-27T12:58:11;0.82;;;0.40;;
19059;SDS011;9663;48.996;8.334;2022-09-27T13:00:57;0.85;;;0.40;;
19059;SDS011;9663;48.996;8.334;2022-09-27T13:12:21;1.95;;;0.65;;
19059;SDS011;9663;48.996;8.334;2022-09-27T13:23:01;1.35;;;0.43;;
19059;SDS011;9663;48.996;8.334;2022-09-27T13:25:54;2.67;;;0.50;;
19059;SDS011;9663;48.996;8.334;2022-09-27T13:30:53;3.10;;;0.73;;
19059;SDS011;9663;48.996;8.334;2022-09-27T13:33:21;2.63;;;0.70;;
19059;SDS011;9663;48.996;8.334;2022-09-27T13:36:16;1.77;;;0.65;;
19059;SDS011;9663;48.996;8.334;2022-09-27T13:44:07;2.13;;;0.70;;
19059;SDS011;9663;48.996;8.334;2022-09-27T13:49:52;2.60;;;0.80;;
19059;SDS011;9663;48.996;8.334;2022-09-27T13:52:32;1.92;;;0.70;;
19059;SDS011;9663;48.996;8.334;2022-09-27T13:55:05;1.40;;;0.50;;
19059;SDS011;9663;48.996;8.334;2022-09-27T14:01:04;0.90;;;0.50;;
19059;SDS011;9663;48.996;8.334;2022-09-27T14:03:52;1.20;;;0.50;;
19059;SDS011;9663;48.996;8.334;2022-09-27T14:06:28;1.45;;;0.68;;
19059;SDS011;9663;48.996;8.334;2022-09-27T14:09:14;1.92;;;0.50;;
19059;SDS011;9663;48.996;8.334;2022-09-27T14:11:52;1.67;;;0.50;;
19059;SDS011;9663;48.996;8.334;2022-09-27T14:14:26;1.35;;;0.40;;
19059;SDS011;9663;48.996;8.334;2022-09-27T14:16:57;1.30;;;0.45;;
19059;SDS011;9663;48.996;8.334;2022-09-27T14:19:24;1.20;;;0.45;;
19059;SDS011;9663;48.996;8.334;2022-09-27T14:24:53;2.88;;;0.60;;
19059;SDS011;9663;48.996;8.334;2022-09-27T14:27:29;0.85;;;0.40;;
19059;SDS011;9663;48.996;8.334;2022-09-27T14:30:15;0.95;;;0.40;;
19059;SDS011;9663;48.996;8.334;2022-09-27T14:32:48;0.95;;;0.45;;
19059;SDS011;9663;48.996;8.334;2022-09-27T14:35:21;1.08;;;0.50;;
19059;SDS011;9663;48.996;8.334;2022-09-27T14:38:15;1.83;;;0.43;;
19059;SDS011;9663;48.996;8.334;2022-09-27T14:40:56;0.68;;;0.40;;
19059;SDS011;9663;48.996;8.334;2022-09-27T14:43:24;1.35;;;0.40;;
19059;SDS011;9663;48.996;8.334;2022-09-27T14:45:52;0.95;;;0.40;;
19059;SDS011;9663;48.996;8.334;2022-09-27T14:48:27;1.15;;;0.40;;
19059;SDS011;9663;48.996;8.334;2022-09-27T14:56:21;1.55;;;0.45;;
19059;SDS011;9663;48.996;8.334;2022-09-27T14:58:55;1.13;;;0.50;;
19059;SDS011;9663;48.996;8.334;2022-09-27T15:01:27;1.95;;;0.43;;
19059;SDS011;9663;48.996;8.334;2022-09-27T15:03:55;1.75;;;0.57;;
19059;SDS011;9663;48.996;8.334;2022-09-27T15:06:29;1.23;;;0.43;;
19059;SDS011;9663;48.996;8.334;2022-09-27T15:08:55;0.77;;;0.40;;
19059;SDS011;9663;48.996;8.334;2022-09-27T15:11:22;1.13;;;0.47;;
19059;SDS011;9663;48.996;8.334;2022-09-27T15:13:48;1.50;;;0.40;;
19059;SDS011;9663;48.996;8.334;2022-09-27T15:16:18;0.93;;;0.40;;
19059;SDS011;9663;48.996;8.334;2022-09-27T15:18:47;1.20;;;0.50;;
19059;SDS011;9663;48.996;8.334;2022-09-27T15:21:32;0.50;;;0.30;;
19059;SDS011;9663;48.996;8.334;2022-09-27T15:24:00;1.15;;;0.45;;
19059;SDS011;9663;48.996;8.334;2022-09-27T15:26:35;1.55;;;0.40;;
19059;SDS011;9663;48.996;8.334;2022-09-27T15:29:20;1.35;;;0.47;;
19059;SDS011;9663;48.996;8.334;2022-09-27T15:31:59;1.00;;;0.45;;
19059;SDS011;9663;48.996;8.334;2022-09-27T15:34:32;1.38;;;0.50;;
19059;SDS011;9663;48.996;8.334;2022-09-27T15:37:00;1.02;;;0.40;;
19059;SDS011;9663;48.996;8.334;2022-09-27T15:39:32;1.83;;;0.52;;
19059;SDS011;9663;48.996;8.334;2022-09-27T15:52:43;1.63;;;0.60;;
19059;SDS011;9663;48.996;8.334;2022-09-27T15:55:18;0.85;;;0.50;;
19059;SDS011;9663;48.996;8.334;2022-09-27T15:58:07;1.48;;;0.50;;
19059;SDS011;9663;48.996;8.334;2022-09-27T16:00:52;2.00;;;0.65;;
19059;SDS011;9663;48.996;8.334;2022-09-27T16:03:20;1.00;;;0.57;;
19059;SDS011;9663;48.996;8.334;2022-09-27T16:05:48;1.15;;;0.47;;
19059;SDS011;9663;48.996;8.334;2022-09-27T16:08:13;1.38;;;0.50;;
19059;SDS011;9663;48.996;8.334;2022-09-27T16:10:40;1.42;;;0.50;;
19059;SDS011;9663;48.996;8.334;2022-09-27T16:13:12;1.60;;;0.50;;
19059;SDS011;9663;48.996;8.334;2022-09-27T16:15:38;2.10;;;0.47;;
19059;SDS011;9663;48.996;8.334;2022-09-27T16:18:04;1.00;;;0.50;;
19059;SDS011;9663;48.996;8.334;2022-09-27T16:20:30;0.60;;;0.38;;
19059;SDS011;9663;48.996;8.334;2022-09-27T16:22:56;1.42;;;0.50;;
19059;SDS011;9663;48.996;8.334;2022-09-27T16:25:22;1.20;;;0.40;;
19059;SDS011;9663;48.996;8.334;2022-09-27T16:27:49;1.00;;;0.40;;
19059;SDS011;9663;48.996;8.334;2022-09-27T16:30:16;1.05;;;0.32;;
19059;SDS011;9663;48.996;8.334;2022-09-27T16:32:45;0.70;;;0.38;;
19059;SDS011;9663;48.996;8.334;2022-09-27T16:35:13;0.93;;;0.43;;
19059;SDS011;9663;48.996;8.334;2022-09-27T16:37:41;1.17;;;0.50;;
19059;SDS011;9663;48.996;8.334;2022-09-27T16:40:07;1.08;;;0.50;;
19059;SDS011;9663;48.996;8.334;2022-09-27T16:42:34;1.42;;;0.47;;
19059;SDS011;9663;48.996;8.334;2022-09-27T16:45:02;1.10;;;0.40;;
19059;SDS011;9663;48.996;8.334;2022-09-27T16:47:30;1.48;;;0.47;;
19059;SDS011;9663;48.996;8.334;2022-09-27T16:49:56;1.92;;;0.50;;
19059;SDS011;9663;48.996;8.334;2022-09-27T16:52:40;1.98;;;0.50;;
19059;SDS011;9663;48.996;8.334;2022-09-27T16:55:07;1.90;;;0.70;;
19059;SDS011;9663;48.996;8.334;2022-09-27T16:57:33;1.45;;;0.50;;
19059;SDS011;9663;48.996;8.334;2022-09-27T17:00:00;1.80;;;0.50;;
19059;SDS011;9663;48.996;8.334;2022-09-27T17:02:26;1.20;;;0.50;;
19059;SDS011;9663;48.996;8.334;2022-09-27T17:04:52;1.70;;;0.50;;
19059;SDS011;9663;48.996;8.334;2022-09-27T17:07:18;1.13;;;0.50;;
19059;SDS011;9663;48.996;8.334;2022-09-27T17:09:45;1.45;;;0.63;;
19059;SDS011;9663;48.996;8.334;2022-09-27T17:12:12;3.35;;;0.70;;
19059;SDS011;9663;48.996;8.334;2022-09-27T17:14:38;1.42;;;0.50;;
19059;SDS011;9663;48.996;8.334;2022-09-27T17:17:04;1.83;;;0.73;;
19059;SDS011;9663;48.996;8.334;2022-09-27T17:19:31;1.83;;;0.47;;
19059;SDS011;9663;48.996;8.334;2022-09-27T17:21:58;1.23;;;0.50;;
19059;SDS011;9663;48.996;8.334;2022-09-27T17:24:24;1.63;;;0.50;;
19059;SDS011;9663;48.996;8.334;2022-09-27T17:26:50;1.60;;;0.60;;
19059;SDS011;9663;48.996;8.334;2022-09-27T17:29:16;1.42;;;0.50;;
19059;SDS011;9663;48.996;8.334;2022-09-27T17:31:43;2.47;;;0.60;;
19059;SDS011;9663;48.996;8.334;2022-09-27T17:34:10;1.35;;;0.47;;
19059;SDS011;9663;48.996;8.334;2022-09-27T17:36:41;1.42;;;0.43;;
19059;SDS011;9663;48.996;8.334;2022-09-27T17:39:13;1.33;;;0.50;;
19059;SDS011;9663;48.996;8.334;2022-09-27T17:41:42;4.30;;;0.63;;
19059;SDS011;9663;48.996;8.334;2022-09-27T17:44:11;2.60;;;0.55;;
19059;SDS011;9663;48.996;8.334;2022-09-27T17:46:39;1.40;;;0.50;;
19059;SDS011;9663;48.996;8.334;2022-09-27T17:49:05;1.80;;;0.60;;
19059;SDS011;9663;48.996;8.334;2022-09-27T17:51:52;1.73;;;0.50;;
19059;SDS011;9663;48.996;8.334;2022-09-27T17:54:19;2.05;;;0.50;;
19059;SDS011;9663;48.996;8.334;2022-09-27T17:56:48;1.63;;;0.50;;
19059;SDS011;9663;48.996;8.334;2022-09-27T17:59:15;2.42;;;0.50;;
19059;SDS011;9663;48.996;8.334;2022-09-27T18:01:45;1.02;;;0.50;;
19059;SDS011;9663;48.996;8.334;2022-09-27T18:04:12;1.75;;;0.60;;
19059;SDS011;9663;48.996;8.334;2022-09-27T18:06:42;1.08;;;0.40;;
19059;SDS011;9663;48.996;8.334;2022-09-27T18:09:11;1.25;;;0.52;;
19059;SDS011;9663;48.996;8.334;2022-09-27T18:11:39;1.83;;;0.70;;
19059;SDS011;9663;48.996;8.334;2022-09-27T18:14:06;1.10;;;0.47;;
19059;SDS011;9663;48.996;8.334;2022-09-27T18:16:35;2.78;;;0.70;;
19059;SDS011;9663;48.996;8.334;2022-09-27T18:19:05;1.40;;;0.50;;
19059;SDS011;9663;48.996;8.334;2022-09-27T18:21:32;1.25;;;0.40;;
19059;SDS011;9663;48.996;8.334;2022-09-27T18:23:59;1.13;;;0.50;;
19059;SDS011;9663;48.996;8.334;2022-09-27T18:26:28;1.55;;;0.50;;
19059;SDS011;9663;48.996;8.334;2022-09-27T18:28:54;2.05;;;0.70;;
19059;SDS011;9663;48.996;8.334;2022-09-27T18:31:26;1.70;;;0.50;;
19059;SDS011;9663;48.996;8.334;2022-09-27T18:33:52;1.58;;;0.60;;
19059;SDS011;9663;48.996;8.334;2022-09-27T18:36:19;1.55;;;0.55;;
19059;SDS011;9663;48.996;8.334;2022-09-27T18:38:51;1.67;;;0.60;;
19059;SDS011;9663;48.996;8.334;2022-09-27T18:41:20;2.90;;;0.88;;